createdAt,value
2023-03-16T00:00:05.915Z,19.02
2023-03-16T00:02:33.453Z,16.76
2023-03-16T00:05:02.346Z,18.49
2023-03-16T00:07:30.414Z,20.20
2023-03-16T00:09:57.994Z,20.59
2023-03-16T00:12:25.793Z,22.93
2023-03-16T00:14:53.389Z,20.41
2023-03-16T00:17:21.755Z,19.31
2023-03-16T00:19:51.996Z,25.29
2023-03-16T00:22:21.867Z,26.59
2023-03-16T00:24:49.433Z,22.68
2023-03-16T00:27:17.009Z,19.47
2023-03-16T00:29:46.717Z,20.22
2023-03-16T00:32:16.383Z,18.24
2023-03-16T00:34:45.227Z,19.80
2023-03-16T00:37:15.401Z,19.57
2023-03-16T00:39:46.127Z,18.30
2023-03-16T00:42:15.985Z,20.52
2023-03-16T00:44:43.794Z,18.19
2023-03-16T00:47:12.786Z,18.05
2023-03-16T00:49:42.026Z,15.05
2023-03-16T00:52:12.999Z,12.79
2023-03-16T00:54:42.559Z,12.36
2023-03-16T00:57:13.440Z,12.40
2023-03-16T00:59:41.405Z,18.33
2023-03-16T01:02:10.330Z,20.29
2023-03-16T01:04:38.940Z,23.88
2023-03-16T01:07:07.755Z,19.79
2023-03-16T01:09:35.300Z,22.20
2023-03-16T01:12:03.718Z,23.33
2023-03-16T01:14:33.570Z,18.48
2023-03-16T01:17:01.695Z,18.64
2023-03-16T01:19:30.467Z,19.87
2023-03-16T01:21:58.473Z,22.10
2023-03-16T01:24:26.101Z,21.70
2023-03-16T01:26:54.131Z,22.18
2023-03-16T01:29:21.708Z,19.38
2023-03-16T01:31:50.874Z,21.73
2023-03-16T01:34:20.411Z,21.28
2023-03-16T01:36:49.969Z,21.53
2023-03-16T01:39:18.126Z,19.14
2023-03-16T01:41:47.564Z,19.28
2023-03-16T01:44:18.826Z,16.50
2023-03-16T01:46:46.476Z,18.55
2023-03-16T01:49:20.993Z,20.78
2023-03-16T01:51:54.270Z,17.68
2023-03-16T01:54:28.083Z,15.01
2023-03-16T01:57:01.300Z,15.82
2023-03-16T01:59:35.806Z,19.67
2023-03-16T02:02:03.557Z,19.22
2023-03-16T02:04:45.292Z,21.12
2023-03-16T02:07:14.176Z,21.48
2023-03-16T02:09:45.315Z,25.63
2023-03-16T02:12:14.741Z,33.61
2023-03-16T02:14:42.304Z,34.99
2023-03-16T02:17:10.097Z,31.36
2023-03-16T02:19:53.357Z,29.85
2023-03-16T02:22:21.258Z,28.36
2023-03-16T02:24:48.870Z,28.37
2023-03-16T02:27:29.142Z,25.55
2023-03-16T02:30:04.675Z,22.69
2023-03-16T02:32:33.253Z,21.99
2023-03-16T02:35:02.729Z,22.94
2023-03-16T02:37:30.300Z,19.54
2023-03-16T02:39:57.832Z,22.71
2023-03-16T02:42:28.748Z,23.98
2023-03-16T02:44:59.982Z,22.00
2023-03-16T02:47:35.746Z,20.78
2023-03-16T02:50:04.919Z,20.15
2023-03-16T02:52:33.470Z,19.37
2023-03-16T02:55:01.068Z,20.16
2023-03-16T02:57:30.449Z,20.41
2023-03-16T02:59:59.429Z,18.64
2023-03-16T03:02:27.607Z,19.54
2023-03-16T03:04:55.264Z,18.78
2023-03-16T03:07:22.836Z,20.09
2023-03-16T03:09:50.394Z,20.56
2023-03-16T03:12:17.983Z,25.85
2023-03-16T03:14:45.504Z,26.94
2023-03-16T03:17:14.458Z,24.38
2023-03-16T03:19:42.375Z,24.75
2023-03-16T03:22:10.144Z,25.71
2023-03-16T03:24:37.735Z,20.57
2023-03-16T03:27:05.330Z,16.77
2023-03-16T03:29:33.316Z,26.64
2023-03-16T03:32:01.051Z,28.65
2023-03-16T03:34:30.571Z,30.37
2023-03-16T03:36:58.816Z,16.90
2023-03-16T03:39:26.743Z,14.88
2023-03-16T03:41:54.542Z,15.12
2023-03-16T03:44:22.252Z,23.54
2023-03-16T03:46:50.553Z,29.84
2023-03-16T03:49:19.368Z,31.01
2023-03-16T03:51:48.364Z,24.34
2023-03-16T03:54:16.004Z,30.03
2023-03-16T03:56:43.700Z,32.61
2023-03-16T03:59:12.371Z,27.68
2023-03-16T04:01:39.940Z,37.31
2023-03-16T04:04:07.552Z,27.72
2023-03-16T04:06:35.394Z,30.22
2023-03-16T04:09:04.395Z,31.76
2023-03-16T04:11:32.026Z,29.83
2023-03-16T04:14:00.002Z,28.76
2023-03-16T04:16:27.734Z,31.04
2023-03-16T04:18:55.533Z,35.19
2023-03-16T04:21:24.077Z,20.21
2023-03-16T04:23:51.645Z,17.60
2023-03-16T04:26:21.608Z,23.52
2023-03-16T04:28:49.147Z,21.22
2023-03-16T04:31:16.917Z,32.43
2023-03-16T04:33:44.696Z,33.70
2023-03-16T04:36:12.409Z,29.66
2023-03-16T04:38:40.032Z,34.31
2023-03-16T04:41:08.118Z,32.12
2023-03-16T04:43:37.129Z,30.58
2023-03-16T04:46:05.135Z,33.27
2023-03-16T04:48:32.782Z,38.17
2023-03-16T04:51:00.891Z,32.82
2023-03-16T04:53:28.502Z,35.84
2023-03-16T04:55:56.328Z,42.45
2023-03-16T04:58:24.185Z,43.56
2023-03-16T05:00:54.023Z,36.06
2023-03-16T05:03:22.236Z,32.12
2023-03-16T05:05:50.635Z,36.87
2023-03-16T05:08:18.326Z,46.01
2023-03-16T05:10:47.244Z,40.82
2023-03-16T05:13:15.068Z,44.02
2023-03-16T05:15:42.771Z,45.34
2023-03-16T05:18:11.903Z,43.26
2023-03-16T05:20:39.750Z,44.03
2023-03-16T05:23:07.694Z,40.73
2023-03-16T05:25:35.614Z,47.72
2023-03-16T05:28:03.730Z,45.40
2023-03-16T05:30:31.439Z,40.89
2023-03-16T05:32:59.146Z,46.14
2023-03-16T05:35:28.325Z,39.92
2023-03-16T05:37:56.177Z,39.06
2023-03-16T05:40:23.888Z,37.51
2023-03-16T05:42:56.117Z,45.00
2023-03-16T05:45:24.768Z,38.93
2023-03-16T05:47:52.401Z,41.69
2023-03-16T05:50:20.372Z,55.55
2023-03-16T05:52:49.470Z,44.78
2023-03-16T05:55:18.377Z,51.84
2023-03-16T05:57:46.046Z,47.33
2023-03-16T06:00:15.552Z,48.61
2023-03-16T06:02:44.770Z,95.28
2023-03-16T06:05:12.498Z,74.38
2023-03-16T06:07:40.113Z,60.97
2023-03-16T06:10:11.363Z,40.67
2023-03-16T06:12:39.339Z,41.05
2023-03-16T06:15:09.463Z,54.39
2023-03-16T06:17:39.503Z,51.25
2023-03-16T06:20:10.403Z,56.85
2023-03-16T06:22:38.304Z,62.68
2023-03-16T06:25:07.658Z,55.96
2023-03-16T06:27:36.790Z,63.06
2023-03-16T06:30:05.478Z,52.64
2023-03-16T06:32:33.187Z,48.66
2023-03-16T06:35:01.453Z,44.41
2023-03-16T06:37:29.317Z,40.16
2023-03-16T06:39:56.975Z,41.92
2023-03-16T06:42:24.590Z,32.26
2023-03-16T06:44:53.581Z,36.26
2023-03-16T06:47:21.296Z,39.56
2023-03-16T06:49:48.871Z,32.24
2023-03-16T06:52:16.489Z,28.01
2023-03-16T06:54:44.121Z,33.73
2023-03-16T06:57:12.046Z,27.61
2023-03-16T06:59:39.719Z,30.29
2023-03-16T07:02:11.748Z,35.45
2023-03-16T07:04:39.455Z,38.00
2023-03-16T07:07:07.369Z,39.05
2023-03-16T07:09:38.701Z,38.80
2023-03-16T07:12:07.627Z,32.82
2023-03-16T07:14:35.473Z,37.39
2023-03-16T07:17:03.188Z,39.46
2023-03-16T07:19:32.297Z,31.39
2023-03-16T07:22:01.086Z,47.47
2023-03-16T07:24:28.757Z,27.42
2023-03-16T07:26:56.573Z,24.43
2023-03-16T07:29:24.681Z,17.84
2023-03-16T07:31:53.760Z,13.93
2023-03-16T07:34:21.392Z,14.71
2023-03-16T07:36:50.266Z,12.69
2023-03-16T07:39:18.009Z,12.30
2023-03-16T07:41:46.062Z,11.90
2023-03-16T07:44:13.630Z,9.92
2023-03-16T07:46:41.134Z,9.27
2023-03-16T07:49:09.523Z,10.01
2023-03-16T07:51:37.105Z,9.72
2023-03-16T07:54:06.063Z,8.96
2023-03-16T07:56:49.211Z,11.28
2023-03-16T07:59:19.205Z,13.59
2023-03-16T08:01:48.054Z,16.16
2023-03-16T08:04:15.706Z,17.20
2023-03-16T08:06:47.216Z,18.31
2023-03-16T08:09:16.479Z,14.81
2023-03-16T08:11:44.434Z,12.19
2023-03-16T08:14:12.472Z,11.56
2023-03-16T08:16:40.009Z,11.92
2023-03-16T08:19:07.566Z,15.95
2023-03-16T08:21:42.791Z,28.28
2023-03-16T08:24:22.437Z,8.96
2023-03-16T08:26:50.175Z,10.40
2023-03-16T08:29:17.869Z,9.41
2023-03-16T08:31:45.584Z,9.89
2023-03-16T08:34:13.198Z,19.09
2023-03-16T08:36:41.123Z,11.51
2023-03-16T08:39:09.234Z,65.56
2023-03-16T08:41:39.134Z,9.87
2023-03-16T08:44:06.753Z,15.22
2023-03-16T08:46:34.389Z,17.14
2023-03-16T08:49:02.132Z,12.04
2023-03-16T08:51:29.746Z,11.02
2023-03-16T08:53:57.379Z,11.06
2023-03-16T08:56:25.333Z,11.83
2023-03-16T08:58:54.370Z,19.62
2023-03-16T09:01:21.965Z,12.62
2023-03-16T09:03:49.608Z,12.10
2023-03-16T09:06:17.396Z,14.36
2023-03-16T09:08:45.054Z,16.76
2023-03-16T09:11:14.694Z,10.78
2023-03-16T09:13:43.285Z,10.34
2023-03-16T09:16:14.288Z,11.04
2023-03-16T09:18:42.204Z,11.49
2023-03-16T09:21:11.646Z,10.96
2023-03-16T09:23:40.409Z,10.76
2023-03-16T09:26:08.411Z,12.59
2023-03-16T09:28:37.534Z,12.38
2023-03-16T09:31:06.188Z,12.07
2023-03-16T09:33:35.908Z,10.44
2023-03-16T09:36:04.123Z,11.65
2023-03-16T09:38:32.741Z,12.28
2023-03-16T09:41:06.962Z,14.60
2023-03-16T09:43:51.022Z,16.13
2023-03-16T09:46:27.377Z,12.96
2023-03-16T09:48:57.893Z,14.41
2023-03-16T09:51:36.919Z,13.17
2023-03-16T09:54:20.128Z,14.12
2023-03-16T09:56:51.464Z,13.38
2023-03-16T09:59:19.364Z,12.80
2023-03-16T10:02:04.512Z,14.39
2023-03-16T10:04:45.006Z,15.66
2023-03-16T10:07:25.359Z,16.24
2023-03-16T10:09:58.110Z,13.17
2023-03-16T10:12:33.124Z,10.80
2023-03-16T10:15:09.870Z,16.43
2023-03-16T10:17:45.977Z,12.05
2023-03-16T10:20:18.622Z,10.53
2023-03-16T10:22:48.764Z,10.75
2023-03-16T10:25:23.259Z,9.93
2023-03-16T10:27:52.121Z,9.04
2023-03-16T10:30:25.675Z,10.93
2023-03-16T10:32:53.769Z,9.44
2023-03-16T10:35:44.799Z,14.86
2023-03-16T10:38:28.303Z,12.23
2023-03-16T10:40:56.471Z,11.39
2023-03-16T10:43:24.052Z,10.92
2023-03-16T10:45:51.749Z,10.85
2023-03-16T10:48:21.239Z,28.52
2023-03-16T10:50:54.198Z,39.94
2023-03-16T10:53:26.489Z,9.55
2023-03-16T10:55:58.443Z,8.20
2023-03-16T10:58:30.924Z,10.27
2023-03-16T11:00:58.741Z,8.35
2023-03-16T11:03:30.270Z,9.29
2023-03-16T11:06:02.134Z,10.14
2023-03-16T11:08:35.338Z,10.84
2023-03-16T11:11:11.166Z,50.96
2023-03-16T11:13:44.579Z,12.94
2023-03-16T11:16:24.978Z,14.06
2023-03-16T11:18:57.167Z,12.82
2023-03-16T11:21:37.486Z,11.04
2023-03-16T11:24:14.895Z,12.15
2023-03-16T11:26:48.964Z,14.35
2023-03-16T11:29:24.473Z,15.41
2023-03-16T11:31:58.011Z,12.24
2023-03-16T11:34:30.103Z,19.37
2023-03-16T11:37:14.345Z,13.49
2023-03-16T11:39:54.760Z,11.76
2023-03-16T11:42:37.382Z,11.43
2023-03-16T11:45:18.926Z,11.36
2023-03-16T11:48:19.709Z,13.27
2023-03-16T11:50:58.834Z,11.51
2023-03-16T11:53:40.605Z,13.68
2023-03-16T11:56:22.572Z,11.98
2023-03-16T11:59:03.656Z,11.48
2023-03-16T12:01:58.246Z,11.72
2023-03-16T12:04:50.284Z,13.46
2023-03-16T12:07:32.862Z,11.07
2023-03-16T12:10:19.583Z,19.94
2023-03-16T12:13:04.906Z,9.18
2023-03-16T12:15:39.297Z,9.69
2023-03-16T12:18:16.897Z,9.23
2023-03-16T12:20:52.945Z,11.47
2023-03-16T12:23:27.962Z,9.50
2023-03-16T12:25:59.433Z,9.23
2023-03-16T12:28:30.080Z,8.79
2023-03-16T12:31:08.613Z,7.79
2023-03-16T12:33:49.747Z,8.72
2023-03-16T12:36:54.951Z,17.86
2023-03-16T12:39:46.529Z,6.43
2023-03-16T12:42:39.370Z,8.87
2023-03-16T12:45:15.423Z,11.87
2023-03-16T12:47:58.450Z,7.22
2023-03-16T12:50:26.566Z,11.62
2023-03-16T12:52:54.513Z,8.95
2023-03-16T12:55:26.649Z,11.95
2023-03-16T12:58:04.875Z,8.97
2023-03-16T13:00:34.260Z,9.07
2023-03-16T13:03:04.085Z,13.32
2023-03-16T13:05:34.828Z,7.10
2023-03-16T13:08:11.076Z,7.19
2023-03-16T13:10:40.230Z,7.64
2023-03-16T13:13:11.863Z,11.79
2023-03-16T13:15:40.319Z,8.39
2023-03-16T13:18:23.929Z,7.54
2023-03-16T13:20:59.094Z,7.87
2023-03-16T13:23:45.920Z,8.12
2023-03-16T13:26:16.178Z,9.95
2023-03-16T13:28:52.183Z,6.75
2023-03-16T13:31:25.436Z,7.00
2023-03-16T13:33:56.003Z,28.50
2023-03-16T13:36:27.651Z,8.02
2023-03-16T13:38:57.149Z,7.48
2023-03-16T13:41:24.999Z,7.62
2023-03-16T13:43:54.207Z,8.49
2023-03-16T13:46:28.321Z,30.12
2023-03-16T13:48:58.682Z,9.76
2023-03-16T13:51:27.104Z,8.67
2023-03-16T13:53:54.926Z,8.25
2023-03-16T13:56:26.007Z,9.07
2023-03-16T13:58:58.840Z,8.01
2023-03-16T14:01:28.982Z,7.27
2023-03-16T14:04:01.165Z,18.24
2023-03-16T14:06:30.563Z,10.42
2023-03-16T14:09:01.801Z,8.72
2023-03-16T14:11:29.989Z,9.03
2023-03-16T14:14:00.674Z,8.31
2023-03-16T14:16:30.121Z,9.39
2023-03-16T14:19:02.608Z,8.53
2023-03-16T14:21:33.103Z,8.71
2023-03-16T14:24:03.035Z,7.42
2023-03-16T14:26:40.499Z,7.23
2023-03-16T14:29:19.965Z,7.05
2023-03-16T14:31:48.701Z,8.58
2023-03-16T14:34:22.981Z,7.14
2023-03-16T14:36:50.744Z,8.22
2023-03-16T14:39:21.076Z,7.47
2023-03-16T14:41:50.301Z,7.66
2023-03-16T14:44:23.220Z,6.82
2023-03-16T14:46:54.392Z,7.42
2023-03-16T14:49:26.964Z,7.32
2023-03-16T14:52:00.726Z,9.74
2023-03-16T14:54:29.252Z,8.86
2023-03-16T14:57:01.036Z,8.79
2023-03-16T14:59:30.162Z,8.04
2023-03-16T15:01:59.115Z,7.73
2023-03-16T15:04:30.994Z,9.92
2023-03-16T15:06:59.114Z,7.90
2023-03-16T15:09:33.982Z,8.04
2023-03-16T15:12:01.783Z,7.63
2023-03-16T15:14:30.754Z,6.99
2023-03-16T15:16:58.550Z,7.71
2023-03-16T15:19:26.234Z,7.47
2023-03-16T15:21:54.459Z,6.76
2023-03-16T15:24:22.112Z,7.67
2023-03-16T15:26:52.135Z,7.31
2023-03-16T15:29:20.044Z,6.79
2023-03-16T15:31:49.069Z,7.21
2023-03-16T15:34:16.839Z,7.84
2023-03-16T15:36:45.501Z,7.46
2023-03-16T15:39:21.776Z,8.67
2023-03-16T15:41:49.513Z,11.24
2023-03-16T15:44:17.178Z,7.53
2023-03-16T15:46:44.908Z,7.44
2023-03-16T15:49:14.013Z,7.02
2023-03-16T15:51:41.760Z,7.05
2023-03-16T15:54:11.870Z,6.63
2023-03-16T15:56:53.855Z,42.44
2023-03-16T15:59:24.052Z,7.20
2023-03-16T16:01:51.669Z,7.37
2023-03-16T16:04:22.214Z,7.31
2023-03-16T16:06:51.303Z,8.43
2023-03-16T16:09:18.989Z,10.64
2023-03-16T16:11:47.073Z,6.54
2023-03-16T16:14:17.619Z,12.38
2023-03-16T16:16:45.966Z,9.94
2023-03-16T16:19:14.656Z,7.91
2023-03-16T16:21:43.665Z,6.40
2023-03-16T16:24:11.415Z,7.37
2023-03-16T16:26:50.064Z,15.47
2023-03-16T16:29:24.424Z,15.82
2023-03-16T16:31:52.706Z,8.76
2023-03-16T16:34:22.855Z,6.64
2023-03-16T16:36:52.212Z,6.06
2023-03-16T16:39:19.916Z,8.21
2023-03-16T16:41:49.644Z,10.98
2023-03-16T16:44:21.686Z,7.71
2023-03-16T16:46:50.700Z,4.81
2023-03-16T16:49:21.811Z,5.27
2023-03-16T16:51:50.111Z,5.45
2023-03-16T16:54:21.343Z,6.94
2023-03-16T16:56:52.124Z,8.20
2023-03-16T16:59:22.563Z,6.77
2023-03-16T17:01:51.659Z,4.48
2023-03-16T17:04:21.643Z,4.25
2023-03-16T17:06:49.896Z,4.78
2023-03-16T17:09:18.920Z,8.13
2023-03-16T17:11:46.777Z,6.67
2023-03-16T17:14:17.441Z,9.96
2023-03-16T17:16:46.342Z,7.84
2023-03-16T17:19:19.720Z,11.80
2023-03-16T17:21:47.674Z,10.79
2023-03-16T17:24:15.309Z,35.40
2023-03-16T17:26:47.541Z,20.13
2023-03-16T17:29:20.783Z,8.13
2023-03-16T17:31:49.002Z,7.77
2023-03-16T17:34:20.262Z,8.90
2023-03-16T17:36:48.318Z,10.75
2023-03-16T17:39:18.351Z,8.09
2023-03-16T17:41:48.373Z,8.42
2023-03-16T17:44:16.235Z,10.02
2023-03-16T17:46:43.887Z,10.79
2023-03-16T17:49:12.778Z,10.76
2023-03-16T17:51:40.692Z,11.29
2023-03-16T17:54:08.326Z,9.14
2023-03-16T17:56:36.226Z,9.07
2023-03-16T17:59:09.414Z,16.17
2023-03-16T18:01:37.262Z,16.15
2023-03-16T18:04:15.120Z,12.77
2023-03-16T18:06:43.847Z,12.40
2023-03-16T18:09:11.478Z,30.18
2023-03-16T18:11:39.221Z,17.68
2023-03-16T18:14:23.017Z,10.41
2023-03-16T18:16:50.813Z,11.93
2023-03-16T18:19:23.004Z,13.19
2023-03-16T18:21:50.830Z,30.09
2023-03-16T18:24:18.615Z,8.81
2023-03-16T18:26:46.173Z,9.76
2023-03-16T18:29:15.136Z,9.51
2023-03-16T18:31:45.062Z,10.25
2023-03-16T18:34:21.994Z,10.80
2023-03-16T18:36:51.419Z,11.22
2023-03-16T18:39:21.759Z,12.53
2023-03-16T18:41:49.419Z,14.07
2023-03-16T18:44:20.795Z,13.91
2023-03-16T18:46:50.475Z,13.77
2023-03-16T18:49:22.505Z,13.86
2023-03-16T18:51:52.455Z,15.29
2023-03-16T18:54:22.564Z,13.44
2023-03-16T18:56:51.114Z,12.08
2023-03-16T18:59:21.079Z,11.80
2023-03-16T19:01:48.906Z,15.40
2023-03-16T19:04:24.135Z,11.82
2023-03-16T19:06:54.129Z,9.95
2023-03-16T19:09:25.190Z,10.38
2023-03-16T19:11:53.377Z,10.46
2023-03-16T19:14:24.251Z,8.94
2023-03-16T19:16:54.630Z,9.94
2023-03-16T19:19:23.533Z,10.11
2023-03-16T19:21:54.518Z,10.51
2023-03-16T19:24:28.495Z,10.47
2023-03-16T19:26:56.722Z,12.26
2023-03-16T19:29:30.966Z,18.54
2023-03-16T19:31:59.439Z,14.77
2023-03-16T19:34:27.883Z,17.34
2023-03-16T19:36:55.591Z,15.97
2023-03-16T19:39:23.259Z,20.83
2023-03-16T19:41:56.618Z,16.65
2023-03-16T19:44:28.249Z,17.89
2023-03-16T19:46:56.089Z,16.77
2023-03-16T19:49:26.228Z,14.88
2023-03-16T19:51:55.563Z,13.51
2023-03-16T19:54:25.543Z,14.68
2023-03-16T19:56:56.058Z,13.80
2023-03-16T19:59:30.943Z,13.62
2023-03-16T20:01:58.654Z,14.81
2023-03-16T20:04:28.039Z,14.53
2023-03-16T20:06:55.740Z,15.52
2023-03-16T20:09:23.449Z,14.95
2023-03-16T20:11:51.141Z,15.02
2023-03-16T20:14:23.497Z,25.31
2023-03-16T20:16:52.780Z,14.22
2023-03-16T20:19:22.206Z,10.93
2023-03-16T20:21:50.597Z,12.34
2023-03-16T20:24:20.081Z,12.07
2023-03-16T20:26:50.145Z,12.62
2023-03-16T20:29:24.314Z,12.60
2023-03-16T20:31:53.698Z,15.74
2023-03-16T20:34:25.573Z,15.87
2023-03-16T20:36:53.535Z,14.33
2023-03-16T20:39:21.226Z,17.18
2023-03-16T20:41:49.630Z,15.19
2023-03-16T20:44:19.766Z,18.34
2023-03-16T20:46:47.550Z,16.23
2023-03-16T20:49:32.833Z,15.64
2023-03-16T20:52:00.628Z,13.69
2023-03-16T20:54:28.303Z,16.43
2023-03-16T20:56:55.988Z,12.04
2023-03-16T20:59:25.631Z,14.40
2023-03-16T21:01:53.789Z,14.00
2023-03-16T21:04:23.759Z,15.45
2023-03-16T21:06:52.817Z,13.46
2023-03-16T21:09:20.961Z,13.63
2023-03-16T21:11:49.117Z,11.60
2023-03-16T21:14:20.940Z,11.63
2023-03-16T21:16:49.825Z,11.35
2023-03-16T21:19:19.981Z,10.93
2023-03-16T21:21:47.738Z,24.03
2023-03-16T21:24:16.833Z,14.27
2023-03-16T21:26:45.627Z,13.15
2023-03-16T21:29:18.584Z,12.16
2023-03-16T21:31:46.318Z,11.46
2023-03-16T21:34:23.404Z,10.32
2023-03-16T21:36:51.577Z,10.09
2023-03-16T21:39:22.000Z,11.04
2023-03-16T21:41:49.545Z,11.09
2023-03-16T21:44:17.108Z,9.72
2023-03-16T21:46:45.066Z,10.43
2023-03-16T21:49:13.221Z,10.97
2023-03-16T21:51:41.017Z,11.23
2023-03-16T21:54:13.133Z,16.39
2023-03-16T21:56:42.699Z,21.82
2023-03-16T21:59:10.489Z,16.54
2023-03-16T22:01:50.989Z,18.20
2023-03-16T22:04:22.222Z,18.13
2023-03-16T22:06:49.892Z,20.62
2023-03-16T22:09:20.530Z,23.01
2023-03-16T22:11:50.131Z,23.32
2023-03-16T22:14:17.716Z,23.05
2023-03-16T22:16:45.453Z,22.57
2023-03-16T22:19:14.208Z,21.14
2023-03-16T22:21:44.072Z,18.82
2023-03-16T22:24:16.826Z,16.43
2023-03-16T22:26:44.791Z,22.27
2023-03-16T22:29:21.246Z,28.15
2023-03-16T22:31:50.377Z,15.81
2023-03-16T22:34:27.248Z,17.94
2023-03-16T22:36:55.423Z,34.77
2023-03-16T22:39:23.252Z,62.65
2023-03-16T22:41:54.272Z,15.13
2023-03-16T22:44:23.909Z,15.34
2023-03-16T22:46:51.685Z,14.96
2023-03-16T22:49:22.697Z,16.44
2023-03-16T22:51:54.239Z,14.03
2023-03-16T22:54:27.778Z,16.29
2023-03-16T22:56:55.708Z,15.59
2023-03-16T22:59:27.054Z,15.57
2023-03-16T23:01:54.873Z,15.40
2023-03-16T23:04:24.634Z,14.81
2023-03-16T23:06:53.662Z,16.08
2023-03-16T23:09:22.341Z,14.75
2023-03-16T23:11:54.037Z,14.46
2023-03-16T23:14:27.025Z,13.39
2023-03-16T23:16:54.803Z,14.04
2023-03-16T23:19:26.541Z,14.13
2023-03-16T23:21:56.844Z,14.70
2023-03-16T23:24:24.601Z,15.36
2023-03-16T23:26:54.248Z,17.19
2023-03-16T23:29:23.416Z,26.74
2023-03-16T23:31:52.741Z,16.11
2023-03-16T23:34:23.293Z,15.83
2023-03-16T23:36:51.516Z,18.36
2023-03-16T23:39:19.206Z,20.76
2023-03-16T23:41:49.467Z,88.76
2023-03-16T23:44:19.052Z,15.05
2023-03-16T23:46:46.874Z,15.03
2023-03-16T23:49:21.329Z,15.81
2023-03-16T23:51:49.999Z,17.20
2023-03-16T23:54:20.550Z,20.45
2023-03-16T23:56:48.478Z,18.03
2023-03-16T23:59:16.271Z,16.59
